Time;durP1;ratioP1;P1;durP2;ratioP2;P2;SDS_P1;SDS_P2;PMS_P1;PMS_P2;Temp;Humidity;BMP_temperature;BMP_pressure;BME280_temperature;BME280_humidity;BME280_pressure;Samples;Min_cycle;Max_cycle;Signal;HPM_P1;HPM_P2
2021/09/27 00:02:07;;;;;;;11.27;7.88;;;;;;;16.43;nan;101865.66;4924669;29;20023;-85
2021/09/27 00:04:33;;;;;;;13.27;7.70;;;;;;;16.43;nan;101865.66;4925182;29;20032;-85
2021/09/27 00:06:59;;;;;;;12.70;8.80;;;;;;;16.40;nan;101859.94;4921931;29;20040;-85
2021/09/27 00:09:32;;;;;;;14.65;9.15;;;;;;;16.36;nan;101859.66;4906258;29;20126;-84
2021/09/27 00:12:11;;;;;;;13.90;8.93;;;;;;;16.32;nan;101861.22;4925079;29;20046;-84
2021/09/27 00:14:38;;;;;;;13.18;8.30;;;;;;;16.36;nan;101856.13;4919428;29;20027;-83
2021/09/27 00:17:07;;;;;;;14.43;9.00;;;;;;;16.36;nan;101858.84;4929069;29;20327;-85
2021/09/27 00:19:34;;;;;;;12.10;8.82;;;;;;;16.27;nan;101863.91;4927179;29;20035;-84
2021/09/27 00:22:00;;;;;;;12.48;8.90;;;;;;;16.29;nan;101865.28;4929181;29;20371;-84
2021/09/27 00:24:26;;;;;;;13.52;9.57;;;;;;;16.30;nan;101860.69;4914418;29;20177;-85
2021/09/27 00:26:52;;;;;;;12.85;9.05;;;;;;;16.31;nan;101862.31;4929715;29;20038;-85
2021/09/27 00:29:18;;;;;;;12.18;9.40;;;;;;;16.27;nan;101869.31;4925616;29;20051;-85
2021/09/27 00:31:43;;;;;;;16.08;9.38;;;;;;;16.21;nan;101868.47;4928808;29;20059;-85
2021/09/27 00:34:09;;;;;;;11.90;9.07;;;;;;;16.20;nan;101879.53;4929092;29;20027;-84
2021/09/27 00:36:35;;;;;;;14.02;9.02;;;;;;;16.16;nan;101881.94;4921903;29;20016;-84
2021/09/27 00:39:01;;;;;;;12.85;9.05;;;;;;;16.21;nan;101883.88;4915872;29;20032;-84
2021/09/27 00:41:26;;;;;;;12.77;9.65;;;;;;;16.24;nan;101883.34;4916293;29;20595;-85
2021/09/27 00:43:52;;;;;;;13.90;10.07;;;;;;;16.24;nan;101888.75;4918324;29;20042;-84
2021/09/27 00:46:24;;;;;;;14.32;9.60;;;;;;;16.30;nan;101887.72;4918746;29;20032;-85
2021/09/27 00:48:50;;;;;;;14.77;9.77;;;;;;;16.25;nan;101888.50;4930331;29;20035;-84
2021/09/27 00:51:21;;;;;;;12.73;8.93;;;;;;;16.27;nan;101888.25;4929794;29;20471;-86
2021/09/27 00:53:53;;;;;;;15.25;10.18;;;;;;;16.25;nan;101891.22;4928296;29;20039;-84
2021/09/27 00:56:23;;;;;;;14.95;10.00;;;;;;;16.29;nan;101886.09;4927376;29;20034;-85
2021/09/27 00:58:51;;;;;;;17.83;9.70;;;;;;;16.36;nan;101884.00;4926743;29;20035;-84
2021/09/27 01:01:19;;;;;;;15.15;10.43;;;;;;;16.34;nan;101891.56;4931832;29;20482;-83
2021/09/27 01:03:48;;;;;;;15.50;10.05;;;;;;;16.28;nan;101882.56;4929895;29;20509;-85
2021/09/27 01:06:38;;;;;;;14.05;9.75;;;;;;;16.31;nan;101882.06;4933112;29;20030;-83
2021/09/27 01:09:10;;;;;;;13.38;9.82;;;;;;;16.28;nan;101887.97;4930351;29;20394;-84
2021/09/27 01:11:50;;;;;;;15.20;10.40;;;;;;;16.27;nan;101882.84;4930530;29;20027;-84
2021/09/27 01:14:53;;;;;;;14.40;9.60;;;;;;;16.27;nan;101888.25;4926575;29;20031;-84
2021/09/27 01:17:27;;;;;;;14.95;9.05;;;;;;;16.27;nan;101877.41;4925468;29;20035;-85
2021/09/27 01:20:21;;;;;;;12.68;9.55;;;;;;;16.27;nan;101880.13;4926981;29;20581;-83
2021/09/27 01:22:55;;;;;;;16.83;9.73;;;;;;;16.29;nan;101869.88;4930983;29;20027;-84
2021/09/27 01:25:55;;;;;;;12.82;9.45;;;;;;;16.23;nan;101879.03;4930583;29;20039;-85
2021/09/27 01:28:48;;;;;;;14.75;9.98;;;;;;;16.32;nan;101869.34;4898497;29;20046;-84
2021/09/27 01:31:43;;;;;;;15.63;9.75;;;;;;;16.41;nan;101870.50;4931010;29;20035;-85
2021/09/27 01:34:28;;;;;;;12.40;8.80;;;;;;;16.43;nan;101859.44;4931441;29;20032;-84
2021/09/27 01:37:17;;;;;;;14.30;9.52;;;;;;;16.47;nan;101865.94;4925515;29;20070;-85
2021/09/27 01:39:57;;;;;;;11.55;9.20;;;;;;;16.50;nan;101865.41;4930481;29;20043;-85
2021/09/27 01:42:38;;;;;;;12.40;8.43;;;;;;;16.50;nan;101866.22;4924583;29;20035;-85
2021/09/27 01:45:11;;;;;;;12.85;9.23;;;;;;;16.51;nan;101862.44;4930831;29;20413;-84
2021/09/27 01:47:50;;;;;;;12.10;8.93;;;;;;;16.51;nan;101870.56;4927949;29;20512;-85
2021/09/27 01:50:25;;;;;;;17.33;8.93;;;;;;;16.53;nan;101870.31;4917113;29;20041;-85
2021/09/27 01:52:54;;;;;;;16.27;9.90;;;;;;;16.53;nan;101878.44;4925942;29;20027;-84
2021/09/27 01:55:26;;;;;;;11.93;8.27;;;;;;;16.50;nan;101879.75;4916682;29;20438;-85
2021/09/27 01:58:24;;;;;;;12.45;8.45;;;;;;;16.49;nan;101883.53;4929511;29;20486;-85
2021/09/27 02:00:59;;;;;;;11.07;8.43;;;;;;;16.53;nan;101881.16;4916221;29;20090;-85
2021/09/27 02:03:39;;;;;;;12.63;8.55;;;;;;;16.51;nan;101881.38;4932992;29;20083;-85
2021/09/27 02:06:17;;;;;;;10.65;8.13;;;;;;;16.40;nan;101887.81;4910031;29;20671;-85
2021/09/27 02:08:56;;;;;;;10.10;7.85;;;;;;;16.49;nan;101886.25;4914416;29;20185;-86
2021/09/27 02:11:32;;;;;;;11.48;8.48;;;;;;;16.50;nan;101879.75;4916698;29;20079;-85
2021/09/27 02:14:18;;;;;;;11.02;8.13;;;;;;;16.47;nan;101882.16;4926336;29;20122;-86
2021/09/27 02:16:47;;;;;;;12.52;8.73;;;;;;;16.52;nan;101879.53;4931940;29;20028;-85
2021/09/27 02:19:29;;;;;;;12.90;8.18;;;;;;;16.52;nan;101880.34;4922821;28;20036;-84
2021/09/27 02:21:59;;;;;;;10.02;8.40;;;;;;;16.53;nan;101881.97;4927697;29;20031;-84
2021/09/27 02:24:38;;;;;;;12.23;8.48;;;;;;;16.54;nan;101888.19;4911056;29;20020;-85
2021/09/27 02:27:05;;;;;;;10.82;8.40;;;;;;;16.53;nan;101887.38;4910546;29;20030;-84
2021/09/27 02:29:31;;;;;;;11.07;7.80;;;;;;;16.54;nan;101885.47;4916684;29;20482;-84
2021/09/27 02:32:07;;;;;;;12.02;8.93;;;;;;;16.53;nan;101887.38;4917428;29;20027;-84
2021/09/27 02:34:41;;;;;;;16.60;9.05;;;;;;;16.53;nan;101881.16;4931372;29;20032;-85
2021/09/27 02:37:27;;;;;;;11.68;8.70;;;;;;;16.50;nan;101887.88;4914786;29;20031;-85
2021/09/27 02:40:01;;;;;;;16.27;9.05;;;;;;;16.46;nan;101875.94;4912148;29;20043;-85
2021/09/27 02:42:51;;;;;;;12.23;9.00;;;;;;;16.38;nan;101871.03;4912799;29;20023;-84
2021/09/27 02:45:18;;;;;;;12.10;8.00;;;;;;;16.37;nan;101871.28;4912764;29;20030;-84
2021/09/27 02:47:49;;;;;;;14.27;8.73;;;;;;;16.35;nan;101874.25;4926340;29;20036;-86
2021/09/27 02:50:19;;;;;;;13.35;8.90;;;;;;;16.29;nan;101878.78;4912784;29;20024;-85
2021/09/27 02:52:44;;;;;;;13.32;8.20;;;;;;;16.22;nan;101877.41;4909238;29;20399;-85
2021/09/27 02:55:15;;;;;;;10.63;8.20;;;;;;;16.19;nan;101877.91;4916970;29;20035;-85
2021/09/27 02:58:04;;;;;;;12.18;8.20;;;;;;;16.15;nan;101879.47;4914624;29;20034;-84
2021/09/27 03:00:51;;;;;;;11.07;8.13;;;;;;;16.19;nan;101888.72;4914925;29;20024;-85
2021/09/27 03:03:45;;;;;;;12.13;8.07;;;;;;;16.12;nan;101890.81;4920723;29;20498;-85
2021/09/27 03:06:48;;;;;;;12.63;8.85;;;;;;;16.02;nan;101886.97;4930262;29;20040;-84
2021/09/27 03:09:42;;;;;;;13.07;7.78;;;;;;;15.92;nan;101876.03;4913344;29;20095;-85
2021/09/27 03:12:18;;;;;;;12.15;7.85;;;;;;;15.98;nan;101883.16;4929742;29;20046;-82
2021/09/27 03:15:13;;;;;;;11.90;8.52;;;;;;;15.90;nan;101878.19;4921400;29;20046;-83
2021/09/27 03:17:48;;;;;;;12.05;8.15;;;;;;;15.94;nan;101875.78;4929035;29;20036;-83
2021/09/27 03:20:19;;;;;;;14.93;8.23;;;;;;;15.92;nan;101870.63;4926447;29;20028;-83
2021/09/27 03:23:15;;;;;;;12.75;8.38;;;;;;;15.84;nan;101883.81;4932972;29;20032;-83
2021/09/27 03:25:56;;;;;;;10.48;8.07;;;;;;;15.78;nan;101885.63;4920719;29;20047;-83
2021/09/27 03:28:33;;;;;;;10.63;8.43;;;;;;;15.77;nan;101877.78;4931142;28;20034;-83
2021/09/27 03:31:27;;;;;;;11.70;8.68;;;;;;;15.60;nan;101878.69;4928950;29;20070;-83
2021/09/27 03:34:06;;;;;;;10.45;8.02;;;;;;;15.58;nan;101879.97;4923785;29;20506;-82
2021/09/27 03:36:59;;;;;;;14.10;9.60;;;;;;;15.53;nan;101882.63;4914654;29;20206;-83
2021/09/27 03:39:32;;;;;;;12.90;9.55;;;;;;;15.37;nan;101890.56;4927776;29;20483;-83
2021/09/27 03:42:09;;;;;;;11.50;8.32;;;;;;;15.37;nan;101893.25;4916840;29;20028;-83
2021/09/27 03:44:43;;;;;;;14.10;9.77;;;;;;;15.47;nan;101889.88;4920314;29;20035;-83
2021/09/27 03:47:27;;;;;;;12.43;9.38;;;;;;;15.48;nan;101890.69;4921100;29;20488;-83
2021/09/27 03:49:57;;;;;;;15.27;9.95;;;;;;;15.45;nan;101870.41;4920598;29;20355;-83
2021/09/27 03:52:41;;;;;;;11.23;8.35;;;;;;;15.51;nan;101873.97;4915986;29;20036;-83
2021/09/27 03:55:35;;;;;;;12.97;9.20;;;;;;;15.42;nan;101874.41;4915168;29;20035;-83
2021/09/27 03:58:09;;;;;;;10.63;8.35;;;;;;;15.43;nan;101867.94;4927968;29;20028;-83
2021/09/27 04:00:44;;;;;;;14.63;9.00;;;;;;;15.43;nan;101865.22;4917802;29;20027;-83
2021/09/27 04:03:36;;;;;;;11.25;8.63;;;;;;;15.43;nan;101864.41;4923295;29;20483;-83
2021/09/27 04:06:20;;;;;;;11.98;9.05;;;;;;;15.37;nan;101858.16;4910095;29;20047;-82
2021/09/27 04:09:00;;;;;;;12.70;9.48;;;;;;;15.33;nan;101850.81;4923369;29;20450;-83
2021/09/27 04:12:06;;;;;;;13.73;9.68;;;;;;;15.29;nan;101858.63;4927939;29;20036;-83
2021/09/27 04:14:55;;;;;;;15.90;9.48;;;;;;;15.22;nan;101857.97;4905993;29;20035;-83
2021/09/27 04:17:39;;;;;;;13.13;9.55;;;;;;;15.16;nan;101858.19;4914300;29;20059;-83
2021/09/27 04:20:13;;;;;;;20.52;9.93;;;;;;;15.11;nan;101858.94;4923227;29;20129;-83
2021/09/27 04:22:50;;;;;;;12.90;8.87;;;;;;;15.13;nan;101858.69;4926315;29;20218;-83
2021/09/27 04:25:52;;;;;;;13.77;9.27;;;;;;;15.09;nan;101853.78;4908946;29;20035;-83
2021/09/27 04:28:30;;;;;;;14.98;9.75;;;;;;;15.06;nan;101858.84;4919359;29;20040;-84
2021/09/27 04:31:08;;;;;;;18.70;12.13;;;;;;;14.92;nan;101866.53;4923718;29;20024;-83
2021/09/27 04:33:55;;;;;;;20.23;11.13;;;;;;;14.81;nan;101870.13;4912851;29;20028;-84
2021/09/27 04:36:25;;;;;;;15.82;10.43;;;;;;;14.70;nan;101871.06;4924920;29;20051;-84
2021/09/27 04:38:55;;;;;;;15.23;10.75;;;;;;;14.65;nan;101877.19;4913334;29;20032;-84
2021/09/27 04:41:49;;;;;;;14.10;10.02;;;;;;;14.41;nan;101875.72;4910761;29;20055;-83
2021/09/27 04:44:15;;;;;;;15.73;10.85;;;;;;;14.45;nan;101876.91;4925339;29;20590;-83
2021/09/27 04:46:52;;;;;;;14.95;10.80;;;;;;;14.42;nan;101867.38;4917377;29;20050;-84
2021/09/27 04:49:44;;;;;;;16.13;11.68;;;;;;;14.49;nan;101883.41;4917852;29;20031;-83
2021/09/27 04:52:34;;;;;;;16.23;10.93;;;;;;;14.58;nan;101875.75;4924210;29;20047;-83
2021/09/27 04:55:18;;;;;;;16.95;11.07;;;;;;;14.67;nan;101874.25;4925860;29;20114;-83
2021/09/27 04:58:15;;;;;;;17.48;11.23;;;;;;;14.77;nan;101877.91;4926016;29;20035;-84
2021/09/27 05:01:02;;;;;;;16.15;11.40;;;;;;;14.80;nan;101872.03;4926194;29;20043;-84
2021/09/27 05:03:43;;;;;;;18.42;12.13;;;;;;;14.80;nan;101869.31;4910829;29;20039;-84
2021/09/27 05:06:33;;;;;;;18.67;11.52;;;;;;;14.81;nan;101876.34;4921927;29;20495;-84
2021/09/27 05:09:31;;;;;;;20.85;11.88;;;;;;;14.71;nan;101886.97;4923533;29;20126;-84
2021/09/27 05:12:05;;;;;;;17.45;12.60;;;;;;;14.74;nan;101873.03;4918407;29;20064;-84
2021/09/27 05:14:51;;;;;;;15.82;11.45;;;;;;;14.72;nan;101875.16;4922666;29;20035;-84
2021/09/27 05:17:28;;;;;;;18.67;12.13;;;;;;;14.68;nan;101882.09;4922901;29;20509;-84
2021/09/27 05:20:21;;;;;;;16.10;12.00;;;;;;;14.74;nan;101880.31;4915311;29;20585;-84
2021/09/27 05:23:12;;;;;;;18.02;11.68;;;;;;;14.75;nan;101877.34;4925511;29;20387;-84
2021/09/27 05:26:00;;;;;;;17.63;11.90;;;;;;;14.78;nan;101887.66;4917630;29;20175;-84
2021/09/27 05:28:53;;;;;;;15.77;11.80;;;;;;;14.83;nan;101889.59;4914464;29;20498;-84
2021/09/27 05:31:32;;;;;;;16.35;10.88;;;;;;;14.98;nan;101886.28;4923070;29;20487;-84
2021/09/27 05:34:51;;;;;;;20.23;12.75;;;;;;;15.11;nan;101885.94;4916222;29;20083;-84
2021/09/27 05:37:22;;;;;;;15.95;11.82;;;;;;;15.33;nan;101877.81;4875098;29;20029;-84
2021/09/27 05:40:22;;;;;;;18.35;12.40;;;;;;;15.46;nan;101882.03;4904641;29;20783;-84
2021/09/27 05:43:06;;;;;;;18.08;13.05;;;;;;;15.60;nan;101877.88;4926455;29;20502;-84
2021/09/27 05:45:37;;;;;;;18.37;12.27;;;;;;;15.65;nan;101881.47;4920895;29;20107;-84
2021/09/27 05:48:16;;;;;;;17.38;12.60;;;;;;;15.70;nan;101876.09;4922534;29;20034;-84
2021/09/27 05:50:52;;;;;;;17.48;12.55;;;;;;;15.75;nan;101888.84;4919550;29;20063;-84
2021/09/27 05:53:57;;;;;;;17.50;12.70;;;;;;;15.76;nan;101886.97;4909099;29;20063;-84
2021/09/27 05:56:36;;;;;;;17.60;12.57;;;;;;;15.78;nan;101890.22;4916269;29;20118;-83
2021/09/27 05:59:24;;;;;;;20.60;13.00;;;;;;;15.79;nan;101887.25;4925046;29;20390;-82
2021/09/27 06:02:02;;;;;;;18.38;12.23;;;;;;;15.76;nan;101901.28;4927407;29;20036;-83
2021/09/27 06:04:36;;;;;;;21.05;14.05;;;;;;;15.81;nan;101889.72;4923125;29;20039;-82
2021/09/27 06:07:17;;;;;;;16.30;11.70;;;;;;;15.83;nan;101896.50;4916053;29;20519;-83
2021/09/27 06:09:58;;;;;;;19.95;13.15;;;;;;;15.74;nan;101900.72;4931371;29;20035;-82
2021/09/27 06:13:11;;;;;;;19.45;11.77;;;;;;;15.59;nan;101912.19;4929264;23;20051;-57
2021/09/27 06:15:48;;;;;;;18.02;13.18;;;;;;;15.47;nan;101910.66;4906852;29;20410;-57
2021/09/27 06:18:40;;;;;;;20.70;12.90;;;;;;;15.41;nan;101920.56;4919152;29;20545;-56
2021/09/27 06:21:11;;;;;;;19.42;13.70;;;;;;;15.61;nan;101922.72;4914159;29;20038;-57
2021/09/27 06:26:10;;;;;;;22.33;13.55;;;;;;;15.86;nan;101909.50;4896650;29;20044;-47
2021/09/27 06:28:42;;;;;;;16.88;12.52;;;;;;;15.96;nan;101909.59;4902480;29;20035;-49
2021/09/27 06:31:16;;;;;;;19.20;13.35;;;;;;;16.14;nan;101904.88;4901291;29;20458;-47
2021/09/27 06:33:49;;;;;;;20.17;13.83;;;;;;;16.30;nan;101906.66;4903071;29;20033;-48
2021/09/27 06:36:22;;;;;;;19.83;12.82;;;;;;;16.39;nan;101896.19;4896922;29;20453;-48
2021/09/27 06:38:52;;;;;;;22.83;13.70;;;;;;;16.47;nan;101882.16;4898698;29;20116;-48
2021/09/27 06:41:20;;;;;;;21.35;13.75;;;;;;;16.51;nan;101892.19;4897921;29;20035;-48
2021/09/27 06:43:46;;;;;;;17.00;12.43;;;;;;;16.60;nan;101890.66;4895874;29;20036;-48
2021/09/27 06:46:12;;;;;;;22.30;14.25;;;;;;;16.75;nan;101889.16;4899976;29;20027;-48
2021/09/27 06:48:37;;;;;;;20.33;12.93;;;;;;;16.83;nan;101894.06;4897473;29;20515;-48
2021/09/27 06:51:03;;;;;;;27.70;15.13;;;;;;;16.91;nan;101890.88;4896223;29;20032;-48
2021/09/27 06:53:30;;;;;;;20.98;13.70;;;;;;;16.96;nan;101885.50;4895915;29;20024;-48
2021/09/27 06:55:57;;;;;;;20.85;13.15;;;;;;;17.04;nan;101882.25;4898247;29;20028;-48
2021/09/27 06:58:23;;;;;;;24.13;13.85;;;;;;;17.06;nan;101884.75;4899568;29;20429;-49
2021/09/27 07:00:50;;;;;;;19.70;13.18;;;;;;;17.15;nan;101881.25;4896569;29;20067;-48
2021/09/27 07:03:16;;;;;;;22.02;13.63;;;;;;;17.21;nan;101874.75;4900129;29;20398;-48
2021/09/27 07:05:42;;;;;;;20.95;14.23;;;;;;;17.34;nan;101875.34;4896122;29;20309;-48
2021/09/27 07:08:07;;;;;;;18.83;12.50;;;;;;;17.42;nan;101877.56;4896699;29;20056;-48
2021/09/27 07:10:33;;;;;;;17.13;12.40;;;;;;;17.45;nan;101879.75;4896585;29;20042;-48
2021/09/27 07:12:58;;;;;;;18.13;13.98;;;;;;;17.41;nan;101875.91;4900526;29;20028;-48
2021/09/27 07:15:24;;;;;;;19.20;13.75;;;;;;;17.54;nan;101875.41;4896885;29;20043;-48
2021/09/27 07:17:49;;;;;;;17.73;12.63;;;;;;;17.70;nan;101874.41;4896881;29;20033;-48
2021/09/27 07:20:19;;;;;;;18.60;13.68;;;;;;;17.81;nan;101873.34;4896324;29;20056;-48
2021/09/27 07:22:45;;;;;;;19.80;12.43;;;;;;;17.97;nan;101876.88;4895184;29;20414;-48
2021/09/27 07:25:12;;;;;;;19.35;12.63;;;;;;;18.08;nan;101877.69;4899650;29;20039;-48
2021/09/27 07:27:38;;;;;;;21.00;14.68;;;;;;;18.21;nan;101885.28;4898658;29;20024;-49
2021/09/27 07:30:05;;;;;;;20.02;13.25;;;;;;;18.38;nan;101880.41;4896000;29;20032;-48
2021/09/27 07:32:31;;;;;;;21.25;14.38;;;;;;;18.35;nan;101877.44;4877359;29;20048;-48
2021/09/27 07:34:56;;;;;;;18.23;13.82;;;;;;;18.39;nan;101878.50;4896441;29;20059;-48
2021/09/27 07:37:22;;;;;;;17.05;12.98;;;;;;;18.59;nan;101872.22;4896148;29;20382;-48
2021/09/27 07:39:47;;;;;;;21.33;13.77;;;;;;;18.71;nan;101875.50;4895771;29;20131;-48
2021/09/27 07:42:13;;;;;;;17.88;13.35;;;;;;;18.86;nan;101880.91;4896164;29;20024;-49
2021/09/27 07:44:38;;;;;;;22.10;14.10;;;;;;;18.95;nan;101878.41;4896797;29;20084;-48
2021/09/27 07:47:05;;;;;;;22.02;15.27;;;;;;;19.02;nan;101879.75;4896425;29;20028;-48
2021/09/27 07:49:31;;;;;;;17.33;12.75;;;;;;;19.16;nan;101881.88;4896323;29;20100;-48
2021/09/27 07:51:57;;;;;;;20.98;14.15;;;;;;;19.24;nan;101882.13;4896286;29;20059;-48
2021/09/27 07:54:23;;;;;;;17.92;13.00;;;;;;;19.37;nan;101880.69;4902391;29;20024;-48
2021/09/27 07:56:49;;;;;;;20.60;14.02;;;;;;;19.38;nan;101878.78;4900257;29;20422;-49
2021/09/27 07:59:15;;;;;;;18.20;13.88;;;;;;;19.28;nan;101877.75;4896018;29;20107;-49
2021/09/27 08:01:41;;;;;;;19.88;14.27;;;;;;;19.25;nan;101878.31;4896736;29;20119;-48
2021/09/27 08:04:06;;;;;;;19.73;14.07;;;;;;;19.39;nan;101873.09;4895810;29;20079;-48
2021/09/27 08:06:32;;;;;;;22.33;14.90;;;;;;;19.47;nan;101869.75;4895731;29;20193;-50
2021/09/27 08:08:57;;;;;;;20.85;14.65;;;;;;;19.55;nan;101871.91;4895417;29;20047;-49
2021/09/27 08:11:23;;;;;;;20.08;13.85;;;;;;;19.61;nan;101876.25;4895453;29;20368;-48
2021/09/27 08:13:49;;;;;;;19.20;14.65;;;;;;;19.66;nan;101875.41;4896433;29;20035;-48
2021/09/27 08:16:14;;;;;;;22.75;15.50;;;;;;;19.80;nan;101873.69;4896103;29;20020;-50
2021/09/27 08:18:40;;;;;;;22.70;15.05;;;;;;;19.81;nan;101869.06;4898482;29;20387;-49
2021/09/27 08:21:10;;;;;;;21.77;16.17;;;;;;;19.81;nan;101866.31;4895494;29;20265;-48
2021/09/27 08:23:36;;;;;;;25.88;15.85;;;;;;;19.98;nan;101863.22;4894604;29;20032;-48
2021/09/27 08:26:03;;;;;;;24.75;15.57;;;;;;;20.07;nan;101862.31;4896543;29;20267;-48
2021/09/27 08:28:30;;;;;;;23.70;15.40;;;;;;;20.04;nan;101862.88;4896447;29;20058;-49
2021/09/27 08:31:02;;;;;;;22.52;16.25;;;;;;;20.08;nan;101871.28;4895763;29;20039;-48
2021/09/27 08:33:29;;;;;;;20.27;16.05;;;;;;;20.09;nan;101871.00;4896054;29;20037;-48
2021/09/27 08:35:57;;;;;;;24.33;16.58;;;;;;;20.13;nan;101866.63;4894935;29;20067;-49
2021/09/27 08:38:24;;;;;;;23.88;15.80;;;;;;;20.15;nan;101872.59;4894867;29;20072;-48
2021/09/27 08:40:58;;;;;;;25.17;17.08;;;;;;;20.29;nan;101870.03;4890231;29;20478;-48
2021/09/27 08:43:47;;;;;;;;;;;;;;;20.36;nan;101867.78;4894894;29;20043;-48
2021/09/27 08:46:29;;;;;;;26.00;18.50;;;;;;;20.42;nan;101865.84;4899097;29;19915;-48
2021/09/27 08:49:04;;;;;;;24.08;18.52;;;;;;;20.54;nan;101865.47;4895126;29;20440;-49
2021/09/27 08:51:33;;;;;;;28.27;20.67;;;;;;;20.58;nan;101855.63;4899198;29;20038;-48
2021/09/27 08:54:13;;;;;;;26.83;18.77;;;;;;;20.67;nan;101857.44;4898795;29;20044;-50
2021/09/27 08:56:45;;;;;;;23.70;17.98;;;;;;;20.80;nan;101864.06;4899754;29;20435;-49
2021/09/27 08:59:47;;;;;;;23.40;17.02;;;;;;;20.91;nan;101859.34;4900899;29;20092;-49
2021/09/27 09:02:35;;;;;;;24.33;17.50;;;;;;;20.90;nan;101846.81;4901309;29;20058;-50
2021/09/27 09:05:22;;;;;;;26.02;17.75;;;;;;;21.14;nan;101850.31;4892363;29;20047;-49
2021/09/27 09:08:14;;;;;;;22.60;17.33;;;;;;;21.25;nan;101846.41;4902768;29;20036;-48
2021/09/27 09:10:53;;;;;;;22.88;16.73;;;;;;;21.37;nan;101852.25;4901590;29;20554;-48
2021/09/27 09:13:29;;;;;;;29.65;19.65;;;;;;;21.30;nan;101854.50;4902207;29;20036;-49
2021/09/27 09:16:01;;;;;;;23.15;17.45;;;;;;;21.19;nan;101849.47;4899329;29;20025;-48
2021/09/27 09:18:31;;;;;;;26.38;17.70;;;;;;;21.29;nan;101844.69;4897958;29;20028;-50
2021/09/27 09:21:26;;;;;;;31.48;18.92;;;;;;;21.41;nan;101839.63;4897752;29;20039;-49
2021/09/27 09:23:55;;;;;;;25.02;18.45;;;;;;;21.41;nan;101833.38;4899760;29;20474;-50
2021/09/27 09:26:35;;;;;;;25.25;17.75;;;;;;;21.17;nan;101827.94;4898398;29;20530;-48
2021/09/27 09:29:02;;;;;;;24.63;18.65;;;;;;;21.17;nan;101822.47;4898507;29;20479;-50
2021/09/27 09:31:35;;;;;;;25.35;19.70;;;;;;;21.00;nan;101822.16;4898525;29;20020;-49
2021/09/27 09:34:35;;;;;;;25.20;19.65;;;;;;;21.15;nan;101824.69;4898888;29;20039;-48
2021/09/27 09:37:11;;;;;;;25.92;18.38;;;;;;;21.29;nan;101828.34;4887088;29;21495;-49
2021/09/27 09:39:59;;;;;;;24.58;17.75;;;;;;;21.68;nan;101824.50;4898412;29;20063;-49
2021/09/27 09:42:31;;;;;;;25.35;18.55;;;;;;;22.10;nan;101830.97;4898028;29;20044;-48
2021/09/27 09:44:56;;;;;;;23.70;17.83;;;;;;;22.29;nan;101824.34;4899855;29;20146;-49
2021/09/27 09:47:28;;;;;;;26.55;18.92;;;;;;;22.36;nan;101825.84;4898759;29;20132;-48
2021/09/27 09:50:10;;;;;;;26.23;19.23;;;;;;;22.36;nan;101834.03;4896773;29;20044;-50
2021/09/27 09:52:39;;;;;;;26.45;18.77;;;;;;;22.22;nan;101834.81;4897328;29;20436;-51
2021/09/27 09:55:21;;;;;;;27.23;20.52;;;;;;;22.20;nan;101830.78;4897598;29;20035;-49
2021/09/27 09:58:09;;;;;;;28.27;19.90;;;;;;;22.06;nan;101827.19;4897512;29;20028;-50
2021/09/27 10:00:34;;;;;;;26.58;19.95;;;;;;;22.19;nan;101826.41;4896548;29;20088;-49
2021/09/27 10:03:01;;;;;;;29.35;20.20;;;;;;;22.10;nan;101818.13;4898296;29;20040;-48
2021/09/27 10:05:35;;;;;;;31.10;19.33;;;;;;;21.96;nan;101826.25;4897139;29;20028;-48
2021/09/27 10:08:04;;;;;;;24.55;18.38;;;;;;;22.02;nan;101818.75;4898290;29;20115;-48
2021/09/27 10:10:43;;;;;;;27.10;20.38;;;;;;;22.02;nan;101827.75;4897306;29;20208;-49
2021/09/27 10:13:41;;;;;;;25.95;18.92;;;;;;;22.09;nan;101819.25;4900386;29;20024;-48
2021/09/27 10:16:13;;;;;;;28.52;18.55;;;;;;;22.23;nan;101827.44;4898354;29;20439;-50
2021/09/27 10:18:44;;;;;;;26.13;18.48;;;;;;;22.29;nan;101831.72;4896846;29;20088;-49
2021/09/27 10:21:18;;;;;;;25.55;19.15;;;;;;;22.28;nan;101827.38;4895907;29;20040;-50
2021/09/27 10:23:47;;;;;;;;;;;;;;;22.30;nan;101830.59;4898047;29;20043;-49
2021/09/27 10:26:20;;;;;;;27.13;19.52;;;;;;;22.39;nan;101823.31;4900634;29;20397;-49
2021/09/27 10:28:50;;;;;;;25.47;18.67;;;;;;;22.40;nan;101819.47;4887405;29;20163;-48
2021/09/27 10:31:18;;;;;;;26.00;19.15;;;;;;;22.55;nan;101819.19;4895149;29;20254;-49
2021/09/27 10:33:54;;;;;;;27.02;20.25;;;;;;;22.55;nan;101819.19;4882237;29;20036;-49
2021/09/27 10:36:43;;;;;;;29.48;20.08;;;;;;;22.66;nan;101819.00;4895216;29;20162;-48
2021/09/27 10:39:11;;;;;;;30.15;20.23;;;;;;;22.59;nan;101811.19;4897292;29;20028;-49
2021/09/27 10:41:47;;;;;;;31.77;19.15;;;;;;;22.66;nan;101822.53;4896149;29;20035;-49
2021/09/27 10:44:17;;;;;;;24.67;17.50;;;;;;;22.85;nan;101815.06;4897365;29;20496;-49
2021/09/27 10:46:48;;;;;;;27.17;19.45;;;;;;;23.07;nan;101811.59;4907856;29;20055;-50
2021/09/27 10:49:21;;;;;;;28.20;19.02;;;;;;;23.36;nan;101803.03;4907527;29;20134;-49
2021/09/27 10:51:53;;;;;;;26.85;18.95;;;;;;;23.65;nan;101805.38;4900231;29;20047;-49
2021/09/27 10:54:55;;;;;;;24.35;18.20;;;;;;;23.85;nan;101815.00;4899259;29;20563;-48
2021/09/27 10:57:25;;;;;;;26.35;18.52;;;;;;;23.99;nan;101813.00;4897088;29;20487;-49
2021/09/27 11:00:01;;;;;;;26.73;18.13;;;;;;;23.95;nan;101805.75;4894700;29;20037;-50
2021/09/27 11:02:34;;;;;;;25.90;18.70;;;;;;;23.76;nan;101806.75;4894912;29;20109;-50
2021/09/27 11:05:13;;;;;;;24.92;18.40;;;;;;;23.84;nan;101802.44;4895504;29;20067;-49
2021/09/27 11:07:46;;;;;;;24.60;18.77;;;;;;;23.75;nan;101799.66;4894279;29;20181;-50
2021/09/27 11:10:20;;;;;;;26.45;18.63;;;;;;;23.77;nan;101802.09;4897584;29;20036;-48
2021/09/27 11:12:50;;;;;;;25.67;18.58;;;;;;;23.88;nan;101792.50;4895395;29;20036;-49
2021/09/27 11:15:35;;;;;;;25.70;18.13;;;;;;;24.03;nan;101796.75;4896407;29;20055;-50
2021/09/27 11:18:06;;;;;;;;;;;;;;;24.20;nan;101794.13;4896811;29;20084;-49
2021/09/27 11:20:53;;;;;;;23.40;16.92;;;;;;;24.38;nan;101795.84;4894464;29;20359;-48
2021/09/27 11:23:32;;;;;;;24.60;17.27;;;;;;;24.61;nan;101793.06;4897605;29;20111;-48
2021/09/27 11:26:16;;;;;;;25.38;18.52;;;;;;;24.85;nan;101798.91;4895336;29;20569;-50
2021/09/27 11:28:49;;;;;;;24.92;18.17;;;;;;;25.05;nan;101799.47;4895158;29;20051;-49
2021/09/27 11:31:26;;;;;;;20.92;16.98;;;;;;;24.73;nan;101798.72;4894807;29;20399;-50
2021/09/27 11:33:54;;;;;;;24.90;19.55;;;;;;;24.76;nan;101795.31;4894070;29;20058;-49
2021/09/27 11:36:31;;;;;;;23.40;18.48;;;;;;;24.70;nan;101796.59;4896322;29;20175;-49
2021/09/27 11:39:05;;;;;;;21.65;16.23;;;;;;;25.24;nan;101799.97;4892983;29;20466;-49
2021/09/27 11:41:33;;;;;;;;;;;;;;;26.07;nan;101794.25;4895573;29;20025;-50
2021/09/27 11:44:24;;;;;;;23.20;16.85;;;;;;;26.28;nan;101791.59;4896173;29;20478;-50
2021/09/27 11:47:06;;;;;;;23.02;16.35;;;;;;;26.49;nan;101792.50;4892277;29;20515;-49
2021/09/27 11:50:50;;;;;;;23.85;17.42;;;;;;;27.18;nan;101783.84;4892738;29;20043;-48
2021/09/27 11:53:49;;;;;;;21.77;17.13;;;;;;;27.45;nan;101781.69;4833426;29;20037;-51
2021/09/27 11:56:27;;;;;;;24.42;18.08;;;;;;;27.30;nan;101774.88;4834954;29;20042;-51
2021/09/27 11:58:58;;;;;;;23.02;16.02;;;;;;;27.61;nan;101782.66;4896622;29;20178;-49
2021/09/27 12:01:43;;;;;;;23.23;16.33;;;;;;;27.36;nan;101777.06;4893912;29;20154;-49
2021/09/27 12:04:20;;;;;;;21.52;16.13;;;;;;;27.20;nan;101775.25;4893245;29;20036;-51
2021/09/27 12:06:56;;;;;;;20.85;15.73;;;;;;;26.60;nan;101762.72;4893544;29;20498;-50
2021/09/27 12:09:38;;;;;;;24.38;16.17;;;;;;;26.34;nan;101773.78;4893541;29;20542;-50
2021/09/27 12:12:06;;;;;;;21.13;15.68;;;;;;;26.18;nan;101762.53;4896057;29;20035;-50
2021/09/27 12:14:44;;;;;;;18.70;15.15;;;;;;;25.83;nan;101764.59;4901544;29;20386;-52
2021/09/27 12:17:15;;;;;;;23.48;16.10;;;;;;;25.74;nan;101758.31;4880421;29;20020;-51